sensor_id;sensor_type;location;lat;lon;timestamp;temperature;humidity
18662;DHT22;61528;49.456;11.098;2023-11-21T00:02:10;6.80;99.90
18662;DHT22;61528;49.456;11.098;2023-11-21T00:04:36;8.10;99.90
18662;DHT22;61528;49.456;11.098;2023-11-21T00:07:03;8.20;99.90
18662;DHT22;61528;49.456;11.098;2023-11-21T00:09:29;8.10;99.90
18662;DHT22;61528;49.456;11.098;2023-11-21T00:11:55;8.00;99.90
18662;DHT22;61528;49.456;11.098;2023-11-21T00:14:21;8.10;99.90
18662;DHT22;61528;49.456;11.098;2023-11-21T00:16:47;8.30;99.90
18662;DHT22;61528;49.456;11.098;2023-11-21T00:19:15;8.10;99.90
18662;DHT22;61528;49.456;11.098;2023-11-21T00:21:42;8.20;99.90
18662;DHT22;61528;49.456;11.098;2023-11-21T00:24:12;8.10;99.90
18662;DHT22;61528;49.456;11.098;2023-11-21T00:26:42;8.20;99.90
18662;DHT22;61528;49.456;11.098;2023-11-21T00:29:08;8.40;99.90
18662;DHT22;61528;49.456;11.098;2023-11-21T00:31:34;8.30;99.90
18662;DHT22;61528;49.456;11.098;2023-11-21T00:34:04;8.20;99.90
18662;DHT22;61528;49.456;11.098;2023-11-21T00:36:33;8.20;99.90
18662;DHT22;61528;49.456;11.098;2023-11-21T00:38:59;8.20;99.90
18662;DHT22;61528;49.456;11.098;2023-11-21T00:44:15;8.20;99.90
18662;DHT22;61528;49.456;11.098;2023-11-21T00:46:42;8.10;99.90
18662;DHT22;61528;49.456;11.098;2023-11-21T00:49:08;8.10;99.90
18662;DHT22;61528;49.456;11.098;2023-11-21T00:51:36;8.10;99.90
18662;DHT22;61528;49.456;11.098;2023-11-21T00:54:05;8.10;99.90
18662;DHT22;61528;49.456;11.098;2023-11-21T00:56:32;8.10;99.90
18662;DHT22;61528;49.456;11.098;2023-11-21T00:59:03;8.10;99.90
18662;DHT22;61528;49.456;11.098;2023-11-21T01:01:32;8.10;99.90
18662;DHT22;61528;49.456;11.098;2023-11-21T01:03:58;8.10;99.90
18662;DHT22;61528;49.456;11.098;2023-11-21T01:06:24;8.10;99.90
18662;DHT22;61528;49.456;11.098;2023-11-21T01:08:50;8.10;99.90
18662;DHT22;61528;49.456;11.098;2023-11-21T01:11:16;8.00;99.90
18662;DHT22;61528;49.456;11.098;2023-11-21T01:13:43;8.00;99.90
18662;DHT22;61528;49.456;11.098;2023-11-21T01:16:10;8.10;99.90
18662;DHT22;61528;49.456;11.098;2023-11-21T01:18:37;8.10;99.90
18662;DHT22;61528;49.456;11.098;2023-11-21T01:21:03;7.90;99.90
18662;DHT22;61528;49.456;11.098;2023-11-21T01:23:30;7.90;99.90
18662;DHT22;61528;49.456;11.098;2023-11-21T01:25:56;8.00;99.90
18662;DHT22;61528;49.456;11.098;2023-11-21T01:28:23;7.90;99.90
18662;DHT22;61528;49.456;11.098;2023-11-21T01:30:51;8.00;99.90
18662;DHT22;61528;49.456;11.098;2023-11-21T01:33:18;8.00;99.90
18662;DHT22;61528;49.456;11.098;2023-11-21T01:35:44;8.00;99.90
18662;DHT22;61528;49.456;11.098;2023-11-21T01:38:15;7.90;99.90
18662;DHT22;61528;49.456;11.098;2023-11-21T01:40:43;7.90;99.90
18662;DHT22;61528;49.456;11.098;2023-11-21T01:43:12;7.80;99.90
18662;DHT22;61528;49.456;11.098;2023-11-21T01:45:41;7.80;99.90
18662;DHT22;61528;49.456;11.098;2023-11-21T01:48:07;7.80;99.90
18662;DHT22;61528;49.456;11.098;2023-11-21T01:50:33;7.80;99.90
18662;DHT22;61528;49.456;11.098;2023-11-21T01:53:00;7.80;99.90
18662;DHT22;61528;49.456;11.098;2023-11-21T01:55:27;7.40;99.90
18662;DHT22;61528;49.456;11.098;2023-11-21T01:57:54;7.80;99.90
18662;DHT22;61528;49.456;11.098;2023-11-21T02:00:21;7.70;99.90
18662;DHT22;61528;49.456;11.098;2023-11-21T02:02:49;8.10;99.90
18662;DHT22;61528;49.456;11.098;2023-11-21T02:05:18;8.30;99.90
18662;DHT22;61528;49.456;11.098;2023-11-21T02:07:45;7.70;99.90
18662;DHT22;61528;49.456;11.098;2023-11-21T02:10:15;7.80;99.90
18662;DHT22;61528;49.456;11.098;2023-11-21T02:12:42;7.70;99.90
18662;DHT22;61528;49.456;11.098;2023-11-21T02:15:12;7.70;99.90
18662;DHT22;61528;49.456;11.098;2023-11-21T02:17:43;7.70;99.90
18662;DHT22;61528;49.456;11.098;2023-11-21T02:20:11;7.70;99.90
18662;DHT22;61528;49.456;11.098;2023-11-21T02:22:42;7.70;99.90
18662;DHT22;61528;49.456;11.098;2023-11-21T02:25:11;7.70;99.90
18662;DHT22;61528;49.456;11.098;2023-11-21T02:27:37;7.70;99.90
18662;DHT22;61528;49.456;11.098;2023-11-21T02:30:04;7.80;99.90
18662;DHT22;61528;49.456;11.098;2023-11-21T02:32:31;7.90;99.90
18662;DHT22;61528;49.456;11.098;2023-11-21T02:34:57;7.80;99.90
18662;DHT22;61528;49.456;11.098;2023-11-21T02:37:27;7.80;99.90
18662;DHT22;61528;49.456;11.098;2023-11-21T02:39:53;7.90;99.90
18662;DHT22;61528;49.456;11.098;2023-11-21T02:42:19;8.00;99.90
18662;DHT22;61528;49.456;11.098;2023-11-21T02:44:44;7.90;99.90
18662;DHT22;61528;49.456;11.098;2023-11-21T02:47:10;7.90;99.90
18662;DHT22;61528;49.456;11.098;2023-11-21T02:49:36;7.90;99.90
18662;DHT22;61528;49.456;11.098;2023-11-21T02:52:02;7.90;99.90
18662;DHT22;61528;49.456;11.098;2023-11-21T02:54:29;7.90;99.90
18662;DHT22;61528;49.456;11.098;2023-11-21T02:56:55;7.90;99.90
18662;DHT22;61528;49.456;11.098;2023-11-21T02:59:21;7.90;99.90
18662;DHT22;61528;49.456;11.098;2023-11-21T03:01:47;7.90;99.90
18662;DHT22;61528;49.456;11.098;2023-11-21T03:04:13;7.90;99.90
18662;DHT22;61528;49.456;11.098;2023-11-21T03:06:44;7.90;99.90
18662;DHT22;61528;49.456;11.098;2023-11-21T03:09:11;7.90;99.90
18662;DHT22;61528;49.456;11.098;2023-11-21T03:11:38;7.90;99.90
18662;DHT22;61528;49.456;11.098;2023-11-21T03:14:04;7.90;99.90
18662;DHT22;61528;49.456;11.098;2023-11-21T03:16:32;7.90;99.90
18662;DHT22;61528;49.456;11.098;2023-11-21T03:18:58;7.90;99.90
18662;DHT22;61528;49.456;11.098;2023-11-21T03:21:24;7.90;99.90
18662;DHT22;61528;49.456;11.098;2023-11-21T03:23:55;7.80;99.90
18662;DHT22;61528;49.456;11.098;2023-11-21T03:26:21;7.80;99.90
18662;DHT22;61528;49.456;11.098;2023-11-21T03:28:48;7.80;99.90
18662;DHT22;61528;49.456;11.098;2023-11-21T03:31:15;7.80;99.90
18662;DHT22;61528;49.456;11.098;2023-11-21T03:33:42;7.80;99.90
18662;DHT22;61528;49.456;11.098;2023-11-21T03:36:09;7.90;99.90
18662;DHT22;61528;49.456;11.098;2023-11-21T03:38:35;7.90;99.90
18662;DHT22;61528;49.456;11.098;2023-11-21T03:41:01;7.80;99.90
18662;DHT22;61528;49.456;11.098;2023-11-21T03:43:28;7.90;99.90
18662;DHT22;61528;49.456;11.098;2023-11-21T03:45:54;7.90;99.90
18662;DHT22;61528;49.456;11.098;2023-11-21T03:48:20;7.90;99.90
18662;DHT22;61528;49.456;11.098;2023-11-21T03:50:46;7.80;99.90
18662;DHT22;61528;49.456;11.098;2023-11-21T03:53:13;7.80;99.90
18662;DHT22;61528;49.456;11.098;2023-11-21T03:55:39;7.70;99.90
18662;DHT22;61528;49.456;11.098;2023-11-21T03:58:06;7.60;99.90
18662;DHT22;61528;49.456;11.098;2023-11-21T04:00:32;7.70;99.90
18662;DHT22;61528;49.456;11.098;2023-11-21T04:02:58;7.80;99.90
18662;DHT22;61528;49.456;11.098;2023-11-21T04:05:24;7.90;99.90
18662;DHT22;61528;49.456;11.098;2023-11-21T04:07:51;8.10;99.90
18662;DHT22;61528;49.456;11.098;2023-11-21T04:10:17;7.70;99.90
18662;DHT22;61528;49.456;11.098;2023-11-21T04:12:44;7.80;99.90
18662;DHT22;61528;49.456;11.098;2023-11-21T04:15:11;7.70;99.90
18662;DHT22;61528;49.456;11.098;2023-11-21T04:17:39;7.80;99.90
18662;DHT22;61528;49.456;11.098;2023-11-21T04:20:06;7.70;99.90
18662;DHT22;61528;49.456;11.098;2023-11-21T04:22:39;7.70;99.90
18662;DHT22;61528;49.456;11.098;2023-11-21T04:25:11;7.60;99.90
18662;DHT22;61528;49.456;11.098;2023-11-21T04:27:40;7.60;99.90
18662;DHT22;61528;49.456;11.098;2023-11-21T04:30:06;7.70;99.90
18662;DHT22;61528;49.456;11.098;2023-11-21T04:32:33;7.80;99.90
18662;DHT22;61528;49.456;11.098;2023-11-21T04:34:59;7.70;99.90
18662;DHT22;61528;49.456;11.098;2023-11-21T04:37:25;6.60;99.90
18662;DHT22;61528;49.456;11.098;2023-11-21T04:39:51;7.70;99.90
18662;DHT22;61528;49.456;11.098;2023-11-21T04:42:17;7.70;99.90
18662;DHT22;61528;49.456;11.098;2023-11-21T04:44:43;7.60;99.90
18662;DHT22;61528;49.456;11.098;2023-11-21T04:47:10;7.70;99.90
18662;DHT22;61528;49.456;11.098;2023-11-21T04:49:36;7.60;99.90
18662;DHT22;61528;49.456;11.098;2023-11-21T04:52:02;7.60;99.90
18662;DHT22;61528;49.456;11.098;2023-11-21T04:54:31;7.60;99.90
18662;DHT22;61528;49.456;11.098;2023-11-21T04:56:58;7.60;99.90
18662;DHT22;61528;49.456;11.098;2023-11-21T04:59:26;7.70;99.90
18662;DHT22;61528;49.456;11.098;2023-11-21T05:01:53;7.70;99.90
18662;DHT22;61528;49.456;11.098;2023-11-21T05:04:22;7.70;99.90
18662;DHT22;61528;49.456;11.098;2023-11-21T05:09:55;7.80;99.90
18662;DHT22;61528;49.456;11.098;2023-11-21T05:12:23;7.70;99.90
18662;DHT22;61528;49.456;11.098;2023-11-21T05:14:51;7.70;99.90
18662;DHT22;61528;49.456;11.098;2023-11-21T05:17:37;7.70;99.90
18662;DHT22;61528;49.456;11.098;2023-11-21T05:20:24;7.70;99.90
18662;DHT22;61528;49.456;11.098;2023-11-21T05:22:52;7.70;99.90
18662;DHT22;61528;49.456;11.098;2023-11-21T05:25:38;7.80;99.90
18662;DHT22;61528;49.456;11.098;2023-11-21T05:28:23;7.80;99.90
18662;DHT22;61528;49.456;11.098;2023-11-21T05:30:49;7.80;99.90
18662;DHT22;61528;49.456;11.098;2023-11-21T05:33:16;8.20;99.90
18662;DHT22;61528;49.456;11.098;2023-11-21T05:35:42;8.20;99.90
18662;DHT22;61528;49.456;11.098;2023-11-21T05:38:08;8.10;99.90
18662;DHT22;61528;49.456;11.098;2023-11-21T05:40:34;8.60;99.90
18662;DHT22;61528;49.456;11.098;2023-11-21T05:43:03;7.80;99.90
18662;DHT22;61528;49.456;11.098;2023-11-21T05:45:31;7.90;99.90
18662;DHT22;61528;49.456;11.098;2023-11-21T05:47:58;7.80;99.90
18662;DHT22;61528;49.456;11.098;2023-11-21T05:50:25;7.90;99.90
18662;DHT22;61528;49.456;11.098;2023-11-21T05:52:51;7.90;99.90
18662;DHT22;61528;49.456;11.098;2023-11-21T05:55:18;7.90;99.90
18662;DHT22;61528;49.456;11.098;2023-11-21T05:57:46;7.90;99.90
18662;DHT22;61528;49.456;11.098;2023-11-21T06:00:14;8.10;99.90
18662;DHT22;61528;49.456;11.098;2023-11-21T06:02:53;8.60;99.90
18662;DHT22;61528;49.456;11.098;2023-11-21T06:05:23;7.80;99.90
18662;DHT22;61528;49.456;11.098;2023-11-21T06:07:54;7.90;99.90
18662;DHT22;61528;49.456;11.098;2023-11-21T06:10:24;7.90;99.90
18662;DHT22;61528;49.456;11.098;2023-11-21T06:12:52;7.80;99.90
18662;DHT22;61528;49.456;11.098;2023-11-21T06:15:19;7.90;99.90
18662;DHT22;61528;49.456;11.098;2023-11-21T06:17:49;7.80;99.90
18662;DHT22;61528;49.456;11.098;2023-11-21T06:20:18;7.90;99.90
18662;DHT22;61528;49.456;11.098;2023-11-21T06:22:46;7.80;99.90
18662;DHT22;61528;49.456;11.098;2023-11-21T06:25:13;8.00;99.90
18662;DHT22;61528;49.456;11.098;2023-11-21T06:27:44;7.90;99.90
18662;DHT22;61528;49.456;11.098;2023-11-21T06:30:12;7.90;99.90
18662;DHT22;61528;49.456;11.098;2023-11-21T06:32:39;8.00;99.90
18662;DHT22;61528;49.456;11.098;2023-11-21T06:35:06;8.00;99.90
18662;DHT22;61528;49.456;11.098;2023-11-21T06:37:33;7.90;99.90
18662;DHT22;61528;49.456;11.098;2023-11-21T06:40:00;7.90;99.90
18662;DHT22;61528;49.456;11.098;2023-11-21T06:42:27;7.60;99.90
18662;DHT22;61528;49.456;11.098;2023-11-21T06:44:55;8.00;99.90
18662;DHT22;61528;49.456;11.098;2023-11-21T06:47:25;7.90;99.90
18662;DHT22;61528;49.456;11.098;2023-11-21T06:49:52;8.00;99.90
18662;DHT22;61528;49.456;11.098;2023-11-21T06:52:18;8.00;99.90
18662;DHT22;61528;49.456;11.098;2023-11-21T06:54:45;8.00;99.90
18662;DHT22;61528;49.456;11.098;2023-11-21T06:57:11;8.00;99.90
18662;DHT22;61528;49.456;11.098;2023-11-21T06:59:37;8.00;99.90
18662;DHT22;61528;49.456;11.098;2023-11-21T07:02:04;8.00;99.90
18662;DHT22;61528;49.456;11.098;2023-11-21T07:04:33;7.90;99.90
18662;DHT22;61528;49.456;11.098;2023-11-21T07:07:00;7.90;99.90
18662;DHT22;61528;49.456;11.098;2023-11-21T07:09:45;8.00;99.90
18662;DHT22;61528;49.456;11.098;2023-11-21T07:12:17;7.90;99.90
18662;DHT22;61528;49.456;11.098;2023-11-21T07:14:43;7.90;99.90
18662;DHT22;61528;49.456;11.098;2023-11-21T07:17:13;8.00;99.90
18662;DHT22;61528;49.456;11.098;2023-11-21T07:19:39;8.10;99.90
18662;DHT22;61528;49.456;11.098;2023-11-21T07:22:07;7.90;99.90
18662;DHT22;61528;49.456;11.098;2023-11-21T07:24:34;8.00;99.90
18662;DHT22;61528;49.456;11.098;2023-11-21T07:27:00;8.00;99.90
18662;DHT22;61528;49.456;11.098;2023-11-21T07:29:27;8.00;99.90
18662;DHT22;61528;49.456;11.098;2023-11-21T07:31:55;8.00;99.90
18662;DHT22;61528;49.456;11.098;2023-11-21T07:34:21;8.10;99.90
18662;DHT22;61528;49.456;11.098;2023-11-21T07:36:48;8.10;99.90
18662;DHT22;61528;49.456;11.098;2023-11-21T07:39:14;8.10;99.90
18662;DHT22;61528;49.456;11.098;2023-11-21T07:41:42;8.20;99.90
18662;DHT22;61528;49.456;11.098;2023-11-21T07:44:14;8.20;99.90
18662;DHT22;61528;49.456;11.098;2023-11-21T07:46:41;8.10;99.90
18662;DHT22;61528;49.456;11.098;2023-11-21T07:49:08;8.10;99.90
18662;DHT22;61528;49.456;11.098;2023-11-21T07:51:35;8.20;99.90
18662;DHT22;61528;49.456;11.098;2023-11-21T07:54:01;8.20;99.90
18662;DHT22;61528;49.456;11.098;2023-11-21T07:56:28;8.30;99.90
18662;DHT22;61528;49.456;11.098;2023-11-21T07:58:54;8.20;99.90
18662;DHT22;61528;49.456;11.098;2023-11-21T08:01:20;8.20;99.90
18662;DHT22;61528;49.456;11.098;2023-11-21T08:03:46;8.20;99.90
18662;DHT22;61528;49.456;11.098;2023-11-21T08:06:17;8.20;99.90
18662;DHT22;61528;49.456;11.098;2023-11-21T08:08:43;8.20;99.90
18662;DHT22;61528;49.456;11.098;2023-11-21T08:11:09;8.30;99.90
18662;DHT22;61528;49.456;11.098;2023-11-21T08:13:38;8.30;99.90
18662;DHT22;61528;49.456;11.098;2023-11-21T08:16:04;8.30;99.90
18662;DHT22;61528;49.456;11.098;2023-11-21T08:18:33;8.40;99.90
18662;DHT22;61528;49.456;11.098;2023-11-21T08:20:59;8.50;99.90
18662;DHT22;61528;49.456;11.098;2023-11-21T08:23:26;9.00;99.90
18662;DHT22;61528;49.456;11.098;2023-11-21T08:25:53;8.40;99.90
18662;DHT22;61528;49.456;11.098;2023-11-21T08:28:31;8.40;99.90
18662;DHT22;61528;49.456;11.098;2023-11-21T08:30:57;8.60;99.90
18662;DHT22;61528;49.456;11.098;2023-11-21T08:33:24;8.90;99.90
18662;DHT22;61528;49.456;11.098;2023-11-21T08:35:52;8.80;99.90
18662;DHT22;61528;49.456;11.098;2023-11-21T08:38:19;8.50;99.90
18662;DHT22;61528;49.456;11.098;2023-11-21T08:40:45;8.50;99.90
18662;DHT22;61528;49.456;11.098;2023-11-21T08:43:11;8.50;99.90
18662;DHT22;61528;49.456;11.098;2023-11-21T08:45:37;9.30;99.90
18662;DHT22;61528;49.456;11.098;2023-11-21T08:48:04;8.80;99.90
18662;DHT22;61528;49.456;11.098;2023-11-21T08:50:34;8.60;99.90
18662;DHT22;61528;49.456;11.098;2023-11-21T08:53:00;8.50;99.90
18662;DHT22;61528;49.456;11.098;2023-11-21T08:55:26;9.00;99.90
18662;DHT22;61528;49.456;11.098;2023-11-21T08:57:53;9.20;99.90
18662;DHT22;61528;49.456;11.098;2023-11-21T09:00:19;9.40;99.90
18662;DHT22;61528;49.456;11.098;2023-11-21T09:02:46;7.80;99.90
18662;DHT22;61528;49.456;11.098;2023-11-21T09:05:13;8.80;99.90
18662;DHT22;61528;49.456;11.098;2023-11-21T09:07:41;8.70;99.90
18662;DHT22;61528;49.456;11.098;2023-11-21T09:10:08;8.80;99.90
18662;DHT22;61528;49.456;11.098;2023-11-21T09:12:36;8.90;99.90
18662;DHT22;61528;49.456;11.098;2023-11-21T09:15:04;8.80;99.90
18662;DHT22;61528;49.456;11.098;2023-11-21T09:17:34;9.60;99.90
18662;DHT22;61528;49.456;11.098;2023-11-21T09:20:00;8.80;99.90
18662;DHT22;61528;49.456;11.098;2023-11-21T09:22:26;8.80;99.90
18662;DHT22;61528;49.456;11.098;2023-11-21T09:24:56;8.80;99.90
18662;DHT22;61528;49.456;11.098;2023-11-21T09:27:23;9.00;99.90
18662;DHT22;61528;49.456;11.098;2023-11-21T09:29:52;9.10;99.90
18662;DHT22;61528;49.456;11.098;2023-11-21T09:32:19;9.00;99.90
18662;DHT22;61528;49.456;11.098;2023-11-21T09:34:48;9.40;99.90
18662;DHT22;61528;49.456;11.098;2023-11-21T09:37:14;9.50;99.90
18662;DHT22;61528;49.456;11.098;2023-11-21T09:39:41;9.30;99.90
18662;DHT22;61528;49.456;11.098;2023-11-21T09:42:12;8.90;99.90
18662;DHT22;61528;49.456;11.098;2023-11-21T09:45:10;9.00;99.90
18662;DHT22;61528;49.456;11.098;2023-11-21T09:47:40;9.00;99.90
18662;DHT22;61528;49.456;11.098;2023-11-21T09:50:13;9.00;99.90
18662;DHT22;61528;49.456;11.098;2023-11-21T09:55:21;9.30;99.90
18662;DHT22;61528;49.456;11.098;2023-11-21T09:57:49;9.30;99.90
18662;DHT22;61528;49.456;11.098;2023-11-21T10:00:16;9.10;99.90
18662;DHT22;61528;49.456;11.098;2023-11-21T10:02:44;9.00;99.90
18662;DHT22;61528;49.456;11.098;2023-11-21T10:05:14;9.30;99.90
18662;DHT22;61528;49.456;11.098;2023-11-21T10:07:43;9.30;99.90
18662;DHT22;61528;49.456;11.098;2023-11-21T10:10:30;10.00;99.90
18662;DHT22;61528;49.456;11.098;2023-11-21T10:13:20;9.60;99.90
18662;DHT22;61528;49.456;11.098;2023-11-21T10:15:52;9.40;99.90
18662;DHT22;61528;49.456;11.098;2023-11-21T10:18:19;9.60;99.90
18662;DHT22;61528;49.456;11.098;2023-11-21T10:21:05;9.30;99.90
18662;DHT22;61528;49.456;11.098;2023-11-21T10:23:33;9.40;99.90
18662;DHT22;61528;49.456;11.098;2023-11-21T10:25:59;10.10;99.90
18662;DHT22;61528;49.456;11.098;2023-11-21T10:28:26;9.60;99.90
18662;DHT22;61528;49.456;11.098;2023-11-21T10:30:52;9.60;99.90
18662;DHT22;61528;49.456;11.098;2023-11-21T10:33:28;8.80;99.90
18662;DHT22;61528;49.456;11.098;2023-11-21T10:35:54;9.60;99.90
18662;DHT22;61528;49.456;11.098;2023-11-21T10:38:22;9.50;99.90
18662;DHT22;61528;49.456;11.098;2023-11-21T10:40:51;9.50;99.90
18662;DHT22;61528;49.456;11.098;2023-11-21T10:43:24;9.60;99.90
18662;DHT22;61528;49.456;11.098;2023-11-21T10:45:52;9.60;99.90
18662;DHT22;61528;49.456;11.098;2023-11-21T10:48:18;9.90;99.90
18662;DHT22;61528;49.456;11.098;2023-11-21T10:50:49;9.80;99.90
18662;DHT22;61528;49.456;11.098;2023-11-21T10:53:15;9.70;99.90
18662;DHT22;61528;49.456;11.098;2023-11-21T10:55:42;9.90;99.90
18662;DHT22;61528;49.456;11.098;2023-11-21T10:58:11;9.80;99.90
18662;DHT22;61528;49.456;11.098;2023-11-21T11:00:45;9.90;99.90
18662;DHT22;61528;49.456;11.098;2023-11-21T11:03:12;9.80;99.90
18662;DHT22;61528;49.456;11.098;2023-11-21T11:05:45;9.90;99.90
18662;DHT22;61528;49.456;11.098;2023-11-21T11:08:26;9.80;99.90
18662;DHT22;61528;49.456;11.098;2023-11-21T11:10:58;9.80;99.90
18662;DHT22;61528;49.456;11.098;2023-11-21T11:13:33;9.90;99.90
18662;DHT22;61528;49.456;11.098;2023-11-21T11:16:01;9.90;99.90
18662;DHT22;61528;49.456;11.098;2023-11-21T11:18:29;10.00;99.90
18662;DHT22;61528;49.456;11.098;2023-11-21T11:21:09;9.70;99.90
18662;DHT22;61528;49.456;11.098;2023-11-21T11:29:31;9.90;99.90
18662;DHT22;61528;49.456;11.098;2023-11-21T11:32:06;9.90;99.90
18662;DHT22;61528;49.456;11.098;2023-11-21T11:34:47;9.90;99.90
18662;DHT22;61528;49.456;11.098;2023-11-21T11:37:16;10.00;99.90
18662;DHT22;61528;49.456;11.098;2023-11-21T11:39:45;10.10;99.90
18662;DHT22;61528;49.456;11.098;2023-11-21T11:42:17;10.00;99.90
18662;DHT22;61528;49.456;11.098;2023-11-21T11:44:46;10.10;99.90
18662;DHT22;61528;49.456;11.098;2023-11-21T11:47:16;10.00;99.90
18662;DHT22;61528;49.456;11.098;2023-11-21T11:50:13;10.00;99.90
18662;DHT22;61528;49.456;11.098;2023-11-21T11:52:47;10.00;99.90
18662;DHT22;61528;49.456;11.098;2023-11-21T11:55:15;9.90;99.90
18662;DHT22;61528;49.456;11.098;2023-11-21T11:57:49;10.00;99.90
18662;DHT22;61528;49.456;11.098;2023-11-21T12:00:20;10.00;99.90
18662;DHT22;61528;49.456;11.098;2023-11-21T12:02:54;10.30;99.90
18662;DHT22;61528;49.456;11.098;2023-11-21T12:05:23;10.20;99.90
18662;DHT22;61528;49.456;11.098;2023-11-21T12:07:53;9.90;99.90
18662;DHT22;61528;49.456;11.098;2023-11-21T12:10:25;10.00;99.90
18662;DHT22;61528;49.456;11.098;2023-11-21T12:13:07;10.00;99.90
18662;DHT22;61528;49.456;11.098;2023-11-21T12:15:34;10.10;99.90
18662;DHT22;61528;49.456;11.098;2023-11-21T12:18:01;10.00;99.90
18662;DHT22;61528;49.456;11.098;2023-11-21T12:20:28;9.90;99.90
18662;DHT22;61528;49.456;11.098;2023-11-21T12:22:56;9.90;99.90
18662;DHT22;61528;49.456;11.098;2023-11-21T12:25:26;10.00;99.90
18662;DHT22;61528;49.456;11.098;2023-11-21T12:27:56;9.90;99.90
18662;DHT22;61528;49.456;11.098;2023-11-21T12:30:24;9.80;99.90
18662;DHT22;61528;49.456;11.098;2023-11-21T12:32:55;9.90;99.90
18662;DHT22;61528;49.456;11.098;2023-11-21T12:35:27;9.90;99.90
18662;DHT22;61528;49.456;11.098;2023-11-21T12:37:57;9.90;99.90
18662;DHT22;61528;49.456;11.098;2023-11-21T12:40:25;9.90;99.90
18662;DHT22;61528;49.456;11.098;2023-11-21T12:42:53;9.90;99.90
18662;DHT22;61528;49.456;11.098;2023-11-21T12:45:32;9.90;99.90
18662;DHT22;61528;49.456;11.098;2023-11-21T12:48:04;10.00;99.90
18662;DHT22;61528;49.456;11.098;2023-11-21T12:50:35;9.90;99.90
18662;DHT22;61528;49.456;11.098;2023-11-21T12:53:08;10.00;99.90
18662;DHT22;61528;49.456;11.098;2023-11-21T12:55:39;10.00;99.90
18662;DHT22;61528;49.456;11.098;2023-11-21T12:58:08;10.00;99.90
18662;DHT22;61528;49.456;11.098;2023-11-21T13:00:37;10.00;99.90
18662;DHT22;61528;49.456;11.098;2023-11-21T13:03:08;10.00;99.90
18662;DHT22;61528;49.456;11.098;2023-11-21T13:05:41;9.90;99.90
18662;DHT22;61528;49.456;11.098;2023-11-21T13:08:35;9.40;99.90
18662;DHT22;61528;49.456;11.098;2023-11-21T13:11:05;10.00;99.90
18662;DHT22;61528;49.456;11.098;2023-11-21T13:13:32;10.00;99.90
18662;DHT22;61528;49.456;11.098;2023-11-21T13:16:02;9.90;99.90
18662;DHT22;61528;49.456;11.098;2023-11-21T13:18:35;9.80;99.90
18662;DHT22;61528;49.456;11.098;2023-11-21T13:21:24;10.70;99.90
18662;DHT22;61528;49.456;11.098;2023-11-21T13:23:56;10.10;99.90
18662;DHT22;61528;49.456;11.098;2023-11-21T13:29:55;10.30;99.90
18662;DHT22;61528;49.456;11.098;2023-11-21T13:38:43;11.30;99.90
18662;DHT22;61528;49.456;11.098;2023-11-21T13:41:10;10.10;99.90
18662;DHT22;61528;49.456;11.098;2023-11-21T13:43:41;10.10;99.90
18662;DHT22;61528;49.456;11.098;2023-11-21T13:53:25;10.10;99.90
18662;DHT22;61528;49.456;11.098;2023-11-21T13:56:10;11.00;99.90
18662;DHT22;61528;49.456;11.098;2023-11-21T13:58:39;9.90;99.90
18662;DHT22;61528;49.456;11.098;2023-11-21T14:01:32;10.70;99.90
18662;DHT22;61528;49.456;11.098;2023-11-21T14:04:25;10.20;99.90
18662;DHT22;61528;49.456;11.098;2023-11-21T14:07:15;10.30;99.90
18662;DHT22;61528;49.456;11.098;2023-11-21T14:13:49;8.40;99.90
18662;DHT22;61528;49.456;11.098;2023-11-21T14:20:25;9.90;99.90
18662;DHT22;61528;49.456;11.098;2023-11-21T14:36:07;11.30;99.90
18662;DHT22;61528;49.456;11.098;2023-11-21T14:39:15;11.20;99.90
18662;DHT22;61528;49.456;11.098;2023-11-21T14:42:01;10.10;99.90
18662;DHT22;61528;49.456;11.098;2023-11-21T14:44:49;10.10;99.90
18662;DHT22;61528;49.456;11.098;2023-11-21T14:47:54;10.10;99.90
18662;DHT22;61528;49.456;11.098;2023-11-21T14:51:01;10.00;99.90
18662;DHT22;61528;49.456;11.098;2023-11-21T15:07:40;10.90;99.90
18662;DHT22;61528;49.456;11.098;2023-11-21T15:10:37;10.90;99.90
18662;DHT22;61528;49.456;11.098;2023-11-21T15:20:12;10.80;99.90
18662;DHT22;61528;49.456;11.098;2023-11-21T15:35:01;9.90;99.90
18662;DHT22;61528;49.456;11.098;2023-11-21T15:44:49;9.80;99.90
18662;DHT22;61528;49.456;11.098;2023-11-21T15:47:53;9.70;99.90
18662;DHT22;61528;49.456;11.098;2023-11-21T15:50:56;9.70;99.90
18662;DHT22;61528;49.456;11.098;2023-11-21T15:57:20;9.70;99.90
18662;DHT22;61528;49.456;11.098;2023-11-21T16:00:25;9.80;99.90
18662;DHT22;61528;49.456;11.098;2023-11-21T16:03:28;9.80;99.90
18662;DHT22;61528;49.456;11.098;2023-11-21T16:06:32;9.70;99.90
18662;DHT22;61528;49.456;11.098;2023-11-21T16:09:35;9.60;99.90
18662;DHT22;61528;49.456;11.098;2023-11-21T16:12:38;9.60;99.90
18662;DHT22;61528;49.456;11.098;2023-11-21T16:15:41;9.60;99.90
18662;DHT22;61528;49.456;11.098;2023-11-21T16:18:45;9.50;99.90
18662;DHT22;61528;49.456;11.098;2023-11-21T16:21:48;9.50;99.90
18662;DHT22;61528;49.456;11.098;2023-11-21T16:24:51;9.50;99.90
18662;DHT22;61528;49.456;11.098;2023-11-21T16:27:55;9.50;99.90
18662;DHT22;61528;49.456;11.098;2023-11-21T16:30:58;9.50;99.90
18662;DHT22;61528;49.456;11.098;2023-11-21T16:34:03;9.50;99.90
18662;DHT22;61528;49.456;11.098;2023-11-21T16:37:15;9.50;99.90
18662;DHT22;61528;49.456;11.098;2023-11-21T16:40:18;9.50;99.90
18662;DHT22;61528;49.456;11.098;2023-11-21T16:43:21;9.40;99.90
18662;DHT22;61528;49.456;11.098;2023-11-21T16:46:29;9.40;99.90
18662;DHT22;61528;49.456;11.098;2023-11-21T16:49:32;9.40;99.90
18662;DHT22;61528;49.456;11.098;2023-11-21T16:52:36;9.40;99.90
18662;DHT22;61528;49.456;11.098;2023-11-21T16:55:45;9.40;99.90
18662;DHT22;61528;49.456;11.098;2023-11-21T16:58:50;9.30;99.90
18662;DHT22;61528;49.456;11.098;2023-11-21T17:01:54;9.30;99.90
18662;DHT22;61528;49.456;11.098;2023-11-21T17:04:58;9.30;99.90
18662;DHT22;61528;49.456;11.098;2023-11-21T17:08:01;9.30;99.90
18662;DHT22;61528;49.456;11.098;2023-11-21T17:11:05;9.30;99.90
18662;DHT22;61528;49.456;11.098;2023-11-21T17:14:09;9.20;99.90
18662;DHT22;61528;49.456;11.098;2023-11-21T17:17:12;9.30;99.90
18662;DHT22;61528;49.456;11.098;2023-11-21T17:23:37;9.30;99.90
18662;DHT22;61528;49.456;11.098;2023-11-21T17:26:42;9.30;99.90
18662;DHT22;61528;49.456;11.098;2023-11-21T17:29:45;9.30;99.90
18662;DHT22;61528;49.456;11.098;2023-11-21T17:32:49;9.30;99.90
18662;DHT22;61528;49.456;11.098;2023-11-21T17:35:52;9.70;99.90
18662;DHT22;61528;49.456;11.098;2023-11-21T17:38:55;9.20;99.90
18662;DHT22;61528;49.456;11.098;2023-11-21T17:41:59;9.20;99.90
18662;DHT22;61528;49.456;11.098;2023-11-21T17:45:02;9.20;99.90
18662;DHT22;61528;49.456;11.098;2023-11-21T17:48:11;9.20;99.90